Time;durP1;ratioP1;P1;durP2;ratioP2;P2;SDS_P1;SDS_P2;PMS_P1;PMS_P2;Temp;Humidity;BMP_temperature;BMP_pressure;BME280_temperature;BME280_humidity;BME280_pressure;Samples;Min_cycle;Max_cycle;Signal;HPM_P1;HPM_P2
2021/12/01 00:01:46;;;;;;;34.90;17.40;;;9.10;99.90;;;;;;5044400;28;20050;-81
2021/12/01 00:04:12;;;;;;;36.88;18.13;;;9.10;99.90;;;;;;5006457;28;260913;-82
2021/12/01 00:06:38;;;;;;;36.30;18.98;;;9.10;99.90;;;;;;5044589;28;20498;-82
2021/12/01 00:09:05;;;;;;;33.72;19.15;;;9.20;99.90;;;;;;5016027;28;20068;-83
2021/12/01 00:11:34;;;;;;;35.63;20.13;;;9.20;99.90;;;;;;5027626;28;20056;-82
2021/12/01 00:14:00;;;;;;;39.20;21.17;;;9.30;99.90;;;;;;5028595;28;170206;-83
2021/12/01 00:16:26;;;;;;;42.78;22.77;;;9.30;99.90;;;;;;5044111;28;20523;-82
2021/12/01 00:18:53;;;;;;;36.00;21.52;;;9.30;99.90;;;;;;5027262;28;253246;-81
2021/12/01 00:21:19;;;;;;;40.88;22.13;;;9.30;99.90;;;;;;5026785;28;20064;-82
2021/12/01 00:23:45;;;;;;;45.15;23.38;;;9.30;99.90;;;;;;5019072;28;30714;-83
2021/12/01 00:26:11;;;;;;;42.30;22.98;;;9.40;99.90;;;;;;5043303;28;20049;-83
2021/12/01 00:28:38;;;;;;;40.83;23.15;;;9.40;99.90;;;;;;5014706;28;63771;-81
2021/12/01 00:31:04;;;;;;;44.25;23.92;;;9.40;99.90;;;;;;5014469;28;20061;-82
2021/12/01 00:33:33;;;;;;;43.00;22.27;;;9.40;99.90;;;;;;5023657;28;201389;-79
2021/12/01 00:35:59;;;;;;;37.47;20.33;;;9.40;99.90;;;;;;5021672;28;20072;-81
2021/12/01 00:38:28;;;;;;;39.40;21.00;;;9.40;99.90;;;;;;5027338;28;129239;-83
2021/12/01 00:40:55;;;;;;;37.92;20.40;;;9.40;99.90;;;;;;5029346;28;20053;-82
2021/12/01 00:43:24;;;;;;;36.95;19.88;;;9.40;99.90;;;;;;4991013;28;257305;-81
2021/12/01 00:46:10;;;;;;;44.25;22.55;;;9.40;99.90;;;;;;5030343;28;20040;-84
2021/12/01 00:48:38;;;;;;;41.38;21.60;;;9.40;99.90;;;;;;5017013;28;54441;-81
2021/12/01 00:51:04;;;;;;;35.35;19.52;;;9.40;99.90;;;;;;5019911;28;20462;-82
2021/12/01 00:53:30;;;;;;;33.35;19.45;;;9.40;99.90;;;;;;5027888;28;255055;-83
2021/12/01 00:55:57;;;;;;;35.63;20.63;;;9.40;99.90;;;;;;5046419;28;20503;-83
2021/12/01 00:58:23;;;;;;;35.83;19.63;;;9.40;99.90;;;;;;5035702;28;270760;-82
2021/12/01 01:00:49;;;;;;;37.65;20.27;;;9.40;99.90;;;;;;5032801;28;20133;-83
2021/12/01 01:03:17;;;;;;;39.00;19.30;;;9.40;99.90;;;;;;5016522;28;252401;-83
2021/12/01 01:05:43;;;;;;;32.65;17.85;;;9.40;99.90;;;;;;5049605;28;20059;-82
2021/12/01 01:08:10;;;;;;;31.27;17.55;;;9.50;99.90;;;;;;5043326;28;262640;-82
2021/12/01 01:16:22;;;;;;;36.97;16.73;;;9.50;99.90;;;;;;5063772;28;20055;-82
2021/12/01 01:18:58;;;;;;;28.48;15.45;;;9.50;99.90;;;;;;5033157;28;258871;-83
2021/12/01 01:21:27;;;;;;;28.77;15.98;;;9.50;99.90;;;;;;5060418;28;20136;-83
2021/12/01 01:23:54;;;;;;;27.73;16.10;;;9.50;99.90;;;;;;5041078;28;263423;-82
2021/12/01 01:26:21;;;;;;;27.23;15.18;;;9.60;99.90;;;;;;5032057;28;20546;-82
2021/12/01 01:28:48;;;;;;;29.92;14.48;;;9.60;99.90;;;;;;5029652;28;182262;-81
2021/12/01 01:31:16;;;;;;;25.83;15.02;;;9.60;99.90;;;;;;5029220;28;20055;-82
2021/12/01 01:33:42;;;;;;;29.13;13.40;;;9.60;99.90;;;;;;5016946;28;200016;-83
2021/12/01 01:36:09;;;;;;;21.70;9.75;;;9.60;99.90;;;;;;5049806;28;20045;-81
2021/12/01 01:38:35;;;;;;;23.35;10.82;;;9.60;99.90;;;;;;5018400;28;150711;-81
2021/12/01 01:41:04;;;;;;;24.60;10.93;;;9.60;99.90;;;;;;5042907;28;20049;-81
2021/12/01 01:43:30;;;;;;;20.75;9.38;;;9.60;99.90;;;;;;5043439;28;60938;-82
2021/12/01 01:45:57;;;;;;;18.15;8.40;;;9.60;99.90;;;;;;5055965;28;20524;-83
2021/12/01 01:48:33;;;;;;;21.50;7.97;;;9.60;99.90;;;;;;5044284;28;252916;-82
2021/12/01 01:51:04;;;;;;;15.27;7.13;;;9.60;99.90;;;;;;5062375;28;20057;-82
2021/12/01 01:53:33;;;;;;;15.88;6.38;;;9.60;99.90;;;;;;5050773;28;268807;-80
2021/12/01 01:56:03;;;;;;;13.88;4.90;;;9.60;99.90;;;;;;5062371;28;20048;-83
2021/12/01 01:58:29;;;;;;;13.55;5.03;;;9.60;99.90;;;;;;5029319;28;222009;-82
2021/12/01 02:01:09;;;;;;;12.50;5.55;;;9.60;99.90;;;;;;5061503;28;20049;-81
2021/12/01 02:03:41;;;;;;;13.95;5.30;;;9.70;99.90;;;;;;5017581;28;118163;-83
2021/12/01 02:06:09;;;;;;;11.05;5.47;;;9.60;99.90;;;;;;5062581;28;20056;-81
2021/12/01 02:08:39;;;;;;;14.75;5.30;;;9.60;99.90;;;;;;5045889;28;269044;-82
2021/12/01 02:11:10;;;;;;;15.32;5.78;;;9.60;99.90;;;;;;5064801;28;20052;-82
2021/12/01 02:13:38;;;;;;;17.10;6.23;;;9.60;99.90;;;;;;5042153;28;254836;-82
2021/12/01 02:16:04;;;;;;;16.25;5.85;;;9.60;99.90;;;;;;5060901;28;20295;-82
2021/12/01 02:18:31;;;;;;;14.90;5.85;;;9.60;99.90;;;;;;5024597;28;154263;-82
2021/12/01 02:21:18;;;;;;;14.15;6.10;;;9.50;99.90;;;;;;5055399;28;20063;-82
2021/12/01 02:23:48;;;;;;;16.70;6.75;;;9.50;99.90;;;;;;5012457;28;167625;-82
2021/12/01 02:26:16;;;;;;;11.57;5.85;;;9.50;99.90;;;;;;5040419;28;20061;-84
2021/12/01 02:28:51;;;;;;;13.32;6.15;;;9.50;99.90;;;;;;5003761;28;75305;-82
2021/12/01 02:31:18;;;;;;;13.63;6.07;;;9.50;99.90;;;;;;5056974;28;20495;-82
2021/12/01 02:33:44;;;;;;;12.45;4.90;;;9.50;99.90;;;;;;5017084;28;124162;-82
2021/12/01 02:36:14;;;;;;;10.88;4.72;;;9.50;99.90;;;;;;5046646;28;20632;-82
2021/12/01 02:38:43;;;;;;;10.75;4.15;;;9.50;99.90;;;;;;5034575;28;226929;-82
2021/12/01 02:41:10;;;;;;;10.77;4.03;;;9.50;99.90;;;;;;5045607;28;20051;-82
2021/12/01 02:43:37;;;;;;;7.60;2.95;;;9.50;99.90;;;;;;5029684;28;285561;-82
2021/12/01 02:46:04;;;;;;;8.52;2.80;;;9.60;99.90;;;;;;5048880;28;20064;-81
2021/12/01 02:48:30;;;;;;;8.60;2.80;;;9.60;99.90;;;;;;5029079;28;261768;-83
2021/12/01 02:50:57;;;;;;;7.28;2.92;;;9.60;99.90;;;;;;5049953;28;20144;-82
2021/12/01 02:53:25;;;;;;;8.43;3.25;;;9.60;99.90;;;;;;5040255;28;262185;-83
2021/12/01 02:55:58;;;;;;;8.73;3.10;;;9.60;99.90;;;;;;5062100;28;20056;-83
2021/12/01 02:58:27;;;;;;;9.65;2.70;;;9.60;99.90;;;;;;5031725;28;255666;-82
2021/12/01 03:00:56;;;;;;;8.45;2.45;;;9.70;99.90;;;;;;5050761;28;20052;-82
2021/12/01 03:03:23;;;;;;;7.68;2.03;;;9.70;99.90;;;;;;5014987;28;149325;-82
2021/12/01 03:05:51;;;;;;;6.40;1.70;;;9.70;99.90;;;;;;5033625;28;20147;-80
2021/12/01 03:08:20;;;;;;;11.32;2.30;;;9.70;99.90;;;;;;5029298;28;267325;-83
2021/12/01 03:10:49;;;;;;;12.07;2.55;;;9.70;99.90;;;;;;5068346;28;20264;-84
2021/12/01 03:13:17;;;;;;;11.00;2.85;;;9.80;99.90;;;;;;5045880;28;245546;-83
2021/12/01 03:15:43;;;;;;;13.68;3.05;;;9.80;99.90;;;;;;5061288;28;20068;-82
2021/12/01 03:18:11;;;;;;;13.05;3.03;;;9.80;99.90;;;;;;5040630;28;265973;-82
2021/12/01 03:20:38;;;;;;;13.32;3.15;;;9.80;99.90;;;;;;5043414;28;20047;-83
2021/12/01 03:23:05;;;;;;;11.57;2.80;;;9.80;99.90;;;;;;5045349;28;251843;-82
2021/12/01 03:25:32;;;;;;;10.23;2.10;;;9.80;99.90;;;;;;5046962;28;20958;-82
2021/12/01 03:28:00;;;;;;;7.75;1.90;;;9.80;99.90;;;;;;5033748;28;268626;-82
2021/12/01 03:30:26;;;;;;;6.35;1.70;;;9.80;99.90;;;;;;5043706;28;20051;-82
2021/12/01 03:32:53;;;;;;;7.72;1.60;;;9.80;99.90;;;;;;5066665;28;20055;-83
2021/12/01 03:35:19;;;;;;;9.18;1.40;;;9.80;99.90;;;;;;5050148;28;124602;-83
2021/12/01 03:37:47;;;;;;;10.57;1.60;;;9.70;99.90;;;;;;5048704;28;20060;-82
2021/12/01 03:40:16;;;;;;;9.63;1.60;;;9.70;99.90;;;;;;5035401;28;20045;-82
2021/12/01 03:42:44;;;;;;;10.73;1.63;;;9.70;99.90;;;;;;5062973;28;20052;-82
2021/12/01 03:45:11;;;;;;;12.10;1.98;;;9.80;99.90;;;;;;5040187;28;262484;-82
2021/12/01 03:47:38;;;;;;;12.23;2.42;;;9.70;99.90;;;;;;5048122;28;20045;-83
2021/12/01 03:50:05;;;;;;;14.23;2.75;;;9.70;99.90;;;;;;5043873;28;268520;-82
2021/12/01 03:52:31;;;;;;;12.85;2.85;;;9.70;99.90;;;;;;5040289;28;20059;-83
2021/12/01 03:54:57;;;;;;;14.45;2.80;;;9.70;99.90;;;;;;5024164;28;283758;-83
2021/12/01 03:57:23;;;;;;;17.75;3.05;;;9.70;99.90;;;;;;5064198;28;20067;-82
2021/12/01 03:59:50;;;;;;;16.17;2.88;;;9.70;99.90;;;;;;5037856;28;274711;-82
2021/12/01 04:02:16;;;;;;;18.33;3.10;;;9.70;99.90;;;;;;5047840;28;20068;-81
2021/12/01 04:04:42;;;;;;;19.67;3.33;;;9.70;99.90;;;;;;5026965;28;214322;-82
2021/12/01 04:07:08;;;;;;;19.35;3.03;;;9.70;99.90;;;;;;5060484;28;20063;-81
2021/12/01 04:09:43;;;;;;;21.20;3.28;;;9.60;99.90;;;;;;5025929;28;40898;-82
2021/12/01 04:12:10;;;;;;;17.05;3.25;;;9.70;99.90;;;;;;5035601;28;20072;-83
2021/12/01 04:14:37;;;;;;;13.00;2.60;;;9.60;99.90;;;;;;5024801;28;46619;-83
2021/12/01 04:17:04;;;;;;;11.90;2.45;;;9.60;99.90;;;;;;5049986;28;20044;-81
2021/12/01 04:19:30;;;;;;;16.92;2.55;;;9.60;99.90;;;;;;5033561;28;246491;-82
2021/12/01 04:21:56;;;;;;;10.77;2.60;;;9.60;99.90;;;;;;5050302;28;20048;-83
2021/12/01 04:24:23;;;;;;;9.52;2.60;;;9.60;99.90;;;;;;5015037;28;273448;-82
2021/12/01 04:26:50;;;;;;;10.60;2.63;;;9.60;99.90;;;;;;5049400;28;20049;-82
2021/12/01 04:29:16;;;;;;;10.38;2.70;;;9.60;99.90;;;;;;5002639;28;157437;-82
2021/12/01 04:31:42;;;;;;;9.10;2.83;;;9.60;99.90;;;;;;5036582;28;20044;-82
2021/12/01 04:34:09;;;;;;;10.13;2.70;;;9.60;99.90;;;;;;5031541;28;106406;-82
2021/12/01 04:36:39;;;;;;;9.13;2.75;;;9.60;99.90;;;;;;5031688;28;20467;-81
2021/12/01 04:39:07;;;;;;;7.70;2.80;;;9.60;99.90;;;;;;5024573;28;95686;-81
2021/12/01 04:41:38;;;;;;;9.63;3.45;;;9.60;99.90;;;;;;5049335;28;20060;-82
2021/12/01 04:44:14;;;;;;;10.10;3.63;;;9.60;99.90;;;;;;5030697;28;188366;-82
2021/12/01 04:46:46;;;;;;;9.15;3.80;;;9.60;99.90;;;;;;5046883;28;20060;-81
2021/12/01 04:49:18;;;;;;;10.25;3.47;;;9.60;99.90;;;;;;5026156;28;155537;-81
2021/12/01 04:51:48;;;;;;;8.65;3.40;;;9.60;99.90;;;;;;5046716;28;20060;-81
2021/12/01 04:54:15;;;;;;;10.98;3.78;;;9.60;99.90;;;;;;5009946;28;31583;-82
2021/12/01 04:56:45;;;;;;;9.80;3.50;;;9.60;99.90;;;;;;5020047;28;20064;-82
2021/12/01 04:59:12;;;;;;;7.83;3.43;;;9.50;99.90;;;;;;5040049;28;272239;-82
2021/12/01 05:01:39;;;;;;;7.90;2.80;;;9.50;99.90;;;;;;5049611;28;20064;-81
2021/12/01 05:04:05;;;;;;;8.38;3.05;;;9.50;99.90;;;;;;4997012;28;271822;-81
2021/12/01 05:06:32;;;;;;;7.53;3.00;;;9.50;99.90;;;;;;5035632;28;20048;-82
2021/12/01 05:08:58;;;;;;;8.20;3.00;;;9.50;99.90;;;;;;5012240;28;40593;-82
2021/12/01 05:11:25;;;;;;;9.73;3.22;;;9.40;99.90;;;;;;5034036;28;20053;-82
2021/12/01 05:13:52;;;;;;;8.07;2.92;;;9.40;99.90;;;;;;5021975;28;180949;-83
2021/12/01 05:16:19;;;;;;;7.93;3.00;;;9.40;99.90;;;;;;5035277;28;20160;-82
2021/12/01 05:18:45;;;;;;;6.90;2.30;;;9.40;99.90;;;;;;5022759;28;263679;-81
2021/12/01 05:21:11;;;;;;;7.47;2.83;;;9.40;99.90;;;;;;5030827;28;20060;-81
2021/12/01 05:23:38;;;;;;;7.47;2.72;;;9.40;99.90;;;;;;5013382;28;121024;-79
2021/12/01 05:26:06;;;;;;;7.57;2.85;;;9.40;99.90;;;;;;5045477;28;20056;-80
2021/12/01 05:28:33;;;;;;;7.82;3.08;;;9.40;99.90;;;;;;5018372;28;87008;-81
2021/12/01 05:30:59;;;;;;;7.20;2.70;;;9.40;99.90;;;;;;5031981;28;20064;-82
2021/12/01 05:33:25;;;;;;;7.63;2.72;;;9.40;99.90;;;;;;5028420;28;272992;-81
2021/12/01 05:35:55;;;;;;;8.43;2.70;;;9.30;99.90;;;;;;5046493;28;20498;-82
2021/12/01 05:38:21;;;;;;;7.00;2.40;;;9.30;99.90;;;;;;5027009;28;265213;-81
2021/12/01 05:40:50;;;;;;;7.28;2.33;;;9.30;99.90;;;;;;5022934;28;20480;-81
2021/12/01 05:43:18;;;;;;;7.60;2.90;;;9.30;99.90;;;;;;4999319;28;266417;-82
2021/12/01 05:45:46;;;;;;;8.40;3.20;;;9.30;99.90;;;;;;5047106;28;20057;-81
2021/12/01 05:48:14;;;;;;;7.13;2.75;;;9.30;99.90;;;;;;5029322;28;255132;-82
2021/12/01 05:50:40;;;;;;;7.97;3.15;;;9.30;99.90;;;;;;5045844;28;20507;-81
2021/12/01 05:53:07;;;;;;;7.03;2.70;;;9.30;99.90;;;;;;5027909;28;268700;-81
2021/12/01 05:55:33;;;;;;;7.60;2.65;;;9.30;99.90;;;;;;5040950;28;20053;-81
2021/12/01 05:57:59;;;;;;;7.28;2.45;;;9.20;99.90;;;;;;5028005;28;270053;-80
2021/12/01 06:00:26;;;;;;;7.55;3.08;;;9.20;99.90;;;;;;5027576;28;20079;-80
2021/12/01 06:02:52;;;;;;;7.85;3.05;;;9.20;99.90;;;;;;5025723;28;20040;-80
2021/12/01 06:05:20;;;;;;;7.55;3.10;;;9.20;99.90;;;;;;5009656;28;265646;-82
2021/12/01 06:07:47;;;;;;;8.25;3.83;;;9.20;99.90;;;;;;5038702;28;20064;-80
2021/12/01 06:10:13;;;;;;;7.50;2.97;;;9.20;99.90;;;;;;5019859;28;36395;-81
2021/12/01 06:12:40;;;;;;;7.07;2.55;;;9.20;99.90;;;;;;5044479;28;20061;-81
2021/12/01 06:15:08;;;;;;;7.15;3.00;;;9.10;99.90;;;;;;5024005;28;266471;-81
2021/12/01 06:17:35;;;;;;;7.50;3.10;;;9.10;99.90;;;;;;5045461;28;20052;-80
2021/12/01 06:20:03;;;;;;;7.30;3.13;;;9.10;99.90;;;;;;5023277;28;256002;-79
2021/12/01 06:22:29;;;;;;;7.32;3.42;;;9.10;99.90;;;;;;5054235;28;20328;-81
2021/12/01 06:24:55;;;;;;;10.00;3.50;;;9.10;99.90;;;;;;5033488;28;166114;-81
2021/12/01 06:27:22;;;;;;;21.80;4.05;;;9.00;99.90;;;;;;5031541;28;20049;-81
2021/12/01 06:29:49;;;;;;;8.00;3.70;;;9.00;99.90;;;;;;5018760;28;54317;-81
2021/12/01 06:32:15;;;;;;;8.80;3.90;;;9.00;99.90;;;;;;5045345;28;20052;-81
2021/12/01 06:34:42;;;;;;;6.88;2.72;;;9.00;99.90;;;;;;4994865;28;221768;-81
2021/12/01 06:37:08;;;;;;;7.05;2.70;;;8.90;99.90;;;;;;5050246;28;20055;-80
2021/12/01 06:39:35;;;;;;;7.43;3.17;;;9.00;99.90;;;;;;5006159;28;125191;-82
2021/12/01 06:42:01;;;;;;;6.85;2.58;;;9.00;99.90;;;;;;5039963;28;20053;-81
2021/12/01 06:44:30;;;;;;;6.90;2.58;;;8.90;99.90;;;;;;5026022;28;113572;-82
2021/12/01 06:47:00;;;;;;;6.55;2.38;;;8.90;99.90;;;;;;5022048;28;20044;-82
2021/12/01 06:49:26;;;;;;;6.55;2.53;;;8.90;99.90;;;;;;5011546;28;156936;-82
2021/12/01 06:51:53;;;;;;;6.05;2.00;;;8.90;99.90;;;;;;5038887;28;20431;-84
2021/12/01 06:54:19;;;;;;;7.60;2.20;;;8.80;99.90;;;;;;5007724;28;219489;-83
2021/12/01 06:56:46;;;;;;;7.18;2.22;;;8.80;99.90;;;;;;5023376;28;20037;-83
2021/12/01 06:59:15;;;;;;;7.10;2.90;;;8.80;99.90;;;;;;5021650;28;265882;-85
2021/12/01 07:01:41;;;;;;;6.47;2.28;;;8.80;99.90;;;;;;5042707;28;20361;-83
2021/12/01 07:04:07;;;;;;;6.60;2.70;;;8.80;99.90;;;;;;5009310;28;262103;-83
2021/12/01 07:06:33;;;;;;;6.70;2.53;;;8.80;99.90;;;;;;5044321;28;20049;-85
2021/12/01 07:09:02;;;;;;;5.97;2.03;;;8.70;99.90;;;;;;5024328;28;261663;-84
2021/12/01 07:11:29;;;;;;;6.95;2.30;;;8.70;99.90;;;;;;5010364;28;20056;-85
2021/12/01 07:13:58;;;;;;;6.10;1.95;;;8.80;99.90;;;;;;5016378;28;279279;-85
2021/12/01 07:16:25;;;;;;;6.60;2.13;;;8.80;99.90;;;;;;5051963;28;20047;-84
2021/12/01 07:18:52;;;;;;;6.43;2.08;;;8.80;99.90;;;;;;5012769;28;172723;-83
2021/12/01 07:21:18;;;;;;;6.15;2.20;;;8.70;99.90;;;;;;5016033;28;20055;-84
2021/12/01 07:23:44;;;;;;;7.05;2.38;;;8.80;99.90;;;;;;5022887;28;180339;-85
2021/12/01 07:26:10;;;;;;;6.40;2.22;;;8.80;99.90;;;;;;4997977;28;20049;-83
2021/12/01 07:28:39;;;;;;;6.20;2.15;;;8.80;99.90;;;;;;5012909;28;104189;-84
2021/12/01 07:31:05;;;;;;;7.53;2.17;;;8.80;99.90;;;;;;5031777;28;20056;-85
2021/12/01 07:33:32;;;;;;;6.60;2.20;;;8.80;99.90;;;;;;5045012;28;264022;-85
2021/12/01 07:35:58;;;;;;;7.85;2.47;;;8.80;99.90;;;;;;5032230;28;20057;-86
2021/12/01 07:38:24;;;;;;;7.07;2.90;;;8.80;99.90;;;;;;5002894;28;23268;-83
2021/12/01 07:40:50;;;;;;;10.32;3.38;;;8.90;99.90;;;;;;5026617;28;20056;-84
2021/12/01 07:43:16;;;;;;;7.57;3.10;;;8.90;99.90;;;;;;5011941;28;268820;-83
2021/12/01 07:45:45;;;;;;;7.95;3.30;;;8.90;99.90;;;;;;5054736;28;20136;-81
2021/12/01 07:48:12;;;;;;;8.75;2.90;;;8.90;99.90;;;;;;5033839;28;252086;-83
2021/12/01 07:50:38;;;;;;;7.85;3.05;;;8.90;99.90;;;;;;5049238;28;20876;-83
2021/12/01 07:53:04;;;;;;;8.60;2.90;;;8.90;99.90;;;;;;5039529;28;259210;-83
2021/12/01 07:55:30;;;;;;;7.13;2.58;;;8.90;99.90;;;;;;5025810;28;20052;-83
2021/12/01 07:57:56;;;;;;;7.60;2.80;;;8.90;99.90;;;;;;5050270;28;20049;-83
2021/12/01 08:00:23;;;;;;;7.85;2.80;;;8.90;99.90;;;;;;5022623;28;132088;-84
2021/12/01 08:02:49;;;;;;;7.95;2.88;;;8.90;99.90;;;;;;5050310;28;20045;-80
2021/12/01 08:05:15;;;;;;;8.95;3.67;;;8.90;99.90;;;;;;5018652;28;259553;-81
2021/12/01 08:07:41;;;;;;;9.02;4.18;;;8.90;99.90;;;;;;5032355;28;20052;-82
2021/12/01 08:10:10;;;;;;;9.23;4.40;;;9.00;99.90;;;;;;5020222;28;118902;-83
2021/12/01 08:12:36;;;;;;;10.27;4.57;;;9.00;99.90;;;;;;5034105;28;20057;-82
2021/12/01 08:15:05;;;;;;;9.15;4.30;;;9.00;99.90;;;;;;5029341;28;255095;-81
2021/12/01 08:17:32;;;;;;;10.07;4.97;;;9.00;99.90;;;;;;5030590;28;20120;-83
2021/12/01 08:19:58;;;;;;;12.15;4.43;;;9.00;99.90;;;;;;5028324;28;272882;-81
2021/12/01 08:22:28;;;;;;;10.52;4.60;;;9.00;99.90;;;;;;5052961;28;20049;-82
2021/12/01 08:24:57;;;;;;;9.45;4.60;;;9.00;99.90;;;;;;5030537;28;262203;-82
2021/12/01 08:27:27;;;;;;;8.38;3.72;;;9.00;99.90;;;;;;5051735;28;20057;-81
2021/12/01 08:29:54;;;;;;;11.48;4.00;;;9.00;99.90;;;;;;5038445;28;274001;-81
2021/12/01 08:32:20;;;;;;;9.70;3.42;;;9.00;99.90;;;;;;5049383;28;20523;-80
2021/12/01 08:34:52;;;;;;;9.63;4.18;;;9.00;99.90;;;;;;5013892;28;199722;-81
2021/12/01 08:37:20;;;;;;;12.60;4.15;;;9.00;99.90;;;;;;5048480;28;20076;-81
2021/12/01 08:39:48;;;;;;;9.80;3.70;;;9.00;99.90;;;;;;5034010;28;253378;-81
2021/12/01 08:42:20;;;;;;;11.10;3.63;;;9.00;99.90;;;;;;5066649;28;20048;-80
2021/12/01 08:44:48;;;;;;;9.43;3.22;;;9.00;99.90;;;;;;5050288;28;250287;-81
2021/12/01 08:47:17;;;;;;;7.63;2.40;;;9.00;99.90;;;;;;5070855;28;20067;-81
2021/12/01 08:49:44;;;;;;;9.02;2.15;;;8.90;99.90;;;;;;5041630;28;248452;-82
2021/12/01 08:52:11;;;;;;;11.13;2.33;;;8.90;99.90;;;;;;5049071;28;20384;-82
2021/12/01 08:54:38;;;;;;;13.60;2.38;;;9.00;99.90;;;;;;5023865;28;214548;-83
2021/12/01 08:57:05;;;;;;;15.07;2.40;;;9.00;99.90;;;;;;5028941;28;20369;-83
2021/12/01 08:59:32;;;;;;;15.95;2.20;;;9.00;99.90;;;;;;4997246;28;57330;-83
2021/12/01 09:02:00;;;;;;;14.43;2.38;;;9.00;99.90;;;;;;5044182;28;20399;-81
2021/12/01 09:04:27;;;;;;;14.35;2.03;;;9.00;99.90;;;;;;4997263;28;198438;-81
2021/12/01 09:06:54;;;;;;;14.43;2.22;;;9.00;99.90;;;;;;5027465;28;20129;-82
2021/12/01 09:09:20;;;;;;;13.30;1.98;;;9.10;99.90;;;;;;5022725;28;263023;-81
2021/12/01 09:11:48;;;;;;;13.73;2.05;;;9.10;99.90;;;;;;5028161;28;20059;-82
2021/12/01 09:14:14;;;;;;;15.02;2.00;;;9.00;99.90;;;;;;5020804;28;272705;-82
2021/12/01 09:16:42;;;;;;;11.02;1.63;;;9.00;99.90;;;;;;5043714;28;20413;-81
2021/12/01 09:19:08;;;;;;;14.13;2.30;;;9.00;99.90;;;;;;5028768;28;110482;-81
2021/12/01 09:21:35;;;;;;;10.80;2.00;;;9.00;99.90;;;;;;5027678;28;20516;-81
2021/12/01 09:24:03;;;;;;;12.80;1.60;;;9.00;99.90;;;;;;5009370;28;36300;-81
2021/12/01 09:26:30;;;;;;;11.32;1.33;;;8.90;99.90;;;;;;5035117;28;20060;-82
2021/12/01 09:28:57;;;;;;;12.02;1.55;;;8.90;99.90;;;;;;5024630;28;252460;-81
2021/12/01 09:31:23;;;;;;;13.80;1.77;;;8.90;99.90;;;;;;5040126;28;20045;-82
2021/12/01 09:33:49;;;;;;;14.30;2.38;;;8.80;99.90;;;;;;5006160;28;192638;-82
2021/12/01 09:36:16;;;;;;;10.10;1.30;;;8.80;99.90;;;;;;5037681;28;20057;-82
2021/12/01 09:38:43;;;;;;;10.45;1.40;;;8.80;99.90;;;;;;5010848;28;111291;-82
2021/12/01 09:41:12;;;;;;;15.07;1.35;;;8.80;99.90;;;;;;5041942;28;20522;-83
2021/12/01 09:43:39;;;;;;;14.75;1.50;;;8.80;99.90;;;;;;5021003;28;275439;-82
2021/12/01 09:46:08;;;;;;;7.45;1.27;;;8.80;99.90;;;;;;5046427;28;20056;-82
2021/12/01 09:48:36;;;;;;;10.82;1.45;;;8.70;99.90;;;;;;5014999;28;87048;-83
2021/12/01 09:51:02;;;;;;;12.30;1.73;;;8.80;99.90;;;;;;5007908;28;20057;-83
2021/12/01 09:53:28;;;;;;;12.02;1.58;;;8.80;99.90;;;;;;5037370;28;168839;-82
2021/12/01 09:55:55;;;;;;;11.32;1.35;;;8.80;99.90;;;;;;5056266;28;20057;-82
2021/12/01 09:58:24;;;;;;;12.48;1.98;;;8.80;99.90;;;;;;5035286;28;249587;-82
2021/12/01 10:00:56;;;;;;;12.13;1.40;;;8.80;99.90;;;;;;5013556;28;20059;-82
2021/12/01 10:03:23;;;;;;;11.00;1.55;;;8.80;99.90;;;;;;5010564;28;271348;-83
2021/12/01 10:05:52;;;;;;;14.05;1.60;;;8.80;99.90;;;;;;5045155;28;20068;-83
2021/12/01 10:08:25;;;;;;;15.15;1.80;;;8.80;99.90;;;;;;5029334;28;269769;-82
2021/12/01 10:10:55;;;;;;;13.68;1.70;;;8.90;99.90;;;;;;5030042;28;20049;-82
2021/12/01 10:13:26;;;;;;;11.02;1.77;;;8.90;99.90;;;;;;5024307;28;248473;-82
2021/12/01 10:15:54;;;;;;;14.32;2.03;;;9.00;99.90;;;;;;5027575;28;20048;-83
2021/12/01 10:18:20;;;;;;;16.90;2.22;;;9.00;99.90;;;;;;5022173;28;270779;-82
2021/12/01 10:20:57;;;;;;;12.80;1.77;;;9.10;99.90;;;;;;5043478;28;20056;-81
2021/12/01 10:23:26;;;;;;;17.23;2.13;;;9.20;99.90;;;;;;5030817;28;259242;-82
2021/12/01 10:25:52;;;;;;;16.25;2.10;;;9.30;99.90;;;;;;5043224;28;20049;-82
2021/12/01 10:28:55;;;;;;;16.67;2.55;;;9.30;99.90;;;;;;5008247;28;256886;-80
2021/12/01 10:31:44;;;;;;;14.68;2.20;;;9.20;99.90;;;;;;4986981;28;20058;-82
2021/12/01 10:34:23;;;;;;;20.35;2.28;;;9.10;99.90;;;;;;4964653;28;70254;-81
2021/12/01 10:37:11;;;;;;;14.07;1.58;;;9.10;99.90;;;;;;4994029;28;20057;-81
2021/12/01 10:39:39;;;;;;;14.82;1.92;;;9.10;99.90;;;;;;4974160;28;77914;-81
2021/12/01 10:42:07;;;;;;;19.38;2.10;;;9.20;99.90;;;;;;4986377;28;20058;-80
2021/12/01 10:44:35;;;;;;;15.68;1.70;;;9.20;99.90;;;;;;4969414;28;224467;-82
2021/12/01 10:47:11;;;;;;;19.25;1.90;;;9.20;99.90;;;;;;4987269;28;20062;-84
2021/12/01 10:49:42;;;;;;;17.83;2.40;;;9.10;99.90;;;;;;4955040;28;152746;-82
2021/12/01 10:52:36;;;;;;;19.15;2.15;;;9.00;99.90;;;;;;4988671;28;20069;-83
2021/12/01 10:55:17;;;;;;;17.40;2.90;;;9.00;99.90;;;;;;4973157;28;146392;-82
2021/12/01 10:57:48;;;;;;;22.73;2.78;;;8.90;99.90;;;;;;4984416;28;20062;-83
2021/12/01 11:00:24;;;;;;;17.65;2.22;;;8.90;99.90;;;;;;4938641;28;205158;-82
2021/12/01 11:02:51;;;;;;;19.08;2.13;;;8.80;99.90;;;;;;5004903;28;20050;-82
2021/12/01 11:05:32;;;;;;;15.40;2.15;;;8.80;99.90;;;;;;4958130;28;157223;-82
2021/12/01 11:08:18;;;;;;;14.82;1.92;;;8.80;99.90;;;;;;5005852;28;20044;-82
2021/12/01 11:10:51;;;;;;;14.15;1.83;;;8.80;99.90;;;;;;5021267;28;20313;-82
2021/12/01 11:13:19;;;;;;;13.18;2.00;;;8.70;99.90;;;;;;5026876;28;265366;-82
2021/12/01 11:15:57;;;;;;;16.85;2.40;;;8.60;99.90;;;;;;5009161;28;20080;-81
2021/12/01 11:18:30;;;;;;;18.45;2.17;;;8.60;99.90;;;;;;5025677;28;251239;-82
2021/12/01 11:21:01;;;;;;;14.25;2.20;;;8.60;99.90;;;;;;5044035;28;20056;-82
2021/12/01 11:23:33;;;;;;;13.43;2.33;;;8.70;99.90;;;;;;5034634;28;41612;-82
2021/12/01 11:26:07;;;;;;;19.27;2.90;;;8.70;99.90;;;;;;5017527;28;20049;-82
2021/12/01 11:28:43;;;;;;;24.38;2.92;;;8.70;99.90;;;;;;5033605;28;262549;-81
2021/12/01 11:31:14;;;;;;;20.30;2.63;;;8.80;99.90;;;;;;5033448;28;20060;-81
2021/12/01 11:33:44;;;;;;;19.42;2.83;;;8.80;99.90;;;;;;5046608;28;87816;-81
2021/12/01 11:36:13;;;;;;;22.95;2.92;;;8.70;99.90;;;;;;5026799;28;20053;-81
2021/12/01 11:38:39;;;;;;;24.45;3.05;;;8.70;99.90;;;;;;5022413;28;262249;-82
2021/12/01 11:41:07;;;;;;;28.55;3.50;;;8.70;99.90;;;;;;5044194;28;20054;-83
2021/12/01 11:43:37;;;;;;;21.75;3.10;;;8.60;99.90;;;;;;5005236;28;215079;-83
2021/12/01 11:46:04;;;;;;;25.42;3.45;;;8.60;99.90;;;;;;5042281;28;20047;-82
2021/12/01 11:48:39;;;;;;;25.38;3.53;;;8.60;99.90;;;;;;5027988;28;38068;-81
2021/12/01 11:51:38;;;;;;;21.60;2.70;;;8.60;99.90;;;;;;5051687;28;20064;-81
2021/12/01 11:54:04;;;;;;;25.08;3.25;;;8.70;99.90;;;;;;4999397;28;250923;-81
2021/12/01 11:56:35;;;;;;;20.75;2.90;;;8.70;99.90;;;;;;5021848;28;20045;-80
2021/12/01 11:59:16;;;;;;;24.45;3.22;;;8.60;99.90;;;;;;5030370;28;25431;-81
2021/12/01 12:02:00;;;;;;;21.25;3.40;;;8.50;99.90;;;;;;5041878;28;20051;-79
2021/12/01 12:04:28;;;;;;;23.92;3.17;;;8.50;99.90;;;;;;5009565;28;258988;-81
2021/12/01 12:07:07;;;;;;;24.02;3.90;;;8.50;99.90;;;;;;5023027;28;20050;-80
2021/12/01 12:09:34;;;;;;;34.00;4.47;;;8.40;99.90;;;;;;5010848;28;261800;-81
2021/12/01 12:12:00;;;;;;;22.02;3.35;;;8.50;99.90;;;;;;5058913;28;20057;-82
2021/12/01 12:14:35;;;;;;;23.65;4.03;;;8.40;99.90;;;;;;4995435;28;157807;-81
2021/12/01 12:17:08;;;;;;;27.52;3.80;;;8.50;99.90;;;;;;5043459;28;20056;-81
2021/12/01 12:20:03;;;;;;;31.52;3.67;;;8.60;99.90;;;;;;5011090;28;258483;-82
2021/12/01 12:22:40;;;;;;;28.88;3.92;;;8.70;99.90;;;;;;5040360;28;20055;-78
2021/12/01 12:25:10;;;;;;;27.13;3.65;;;8.70;99.90;;;;;;5011812;28;111571;-80
2021/12/01 12:27:43;;;;;;;31.20;3.80;;;8.50;99.90;;;;;;5027666;28;20060;-81
2021/12/01 12:30:09;;;;;;;24.83;3.63;;;8.40;99.90;;;;;;5009117;28;196405;-82
2021/12/01 12:32:36;;;;;;;24.27;3.15;;;8.40;99.90;;;;;;5045779;28;20049;-80
2021/12/01 12:35:12;;;;;;;16.77;2.67;;;8.40;99.90;;;;;;5021408;28;201298;-81
2021/12/01 12:37:39;;;;;;;22.13;2.75;;;8.30;99.90;;;;;;5037025;28;20053;-82
2021/12/01 12:40:28;;;;;;;21.63;3.00;;;8.30;99.90;;;;;;5032071;28;176112;-80
2021/12/01 12:43:12;;;;;;;17.88;2.63;;;8.30;99.90;;;;;;5045315;28;20264;-81
2021/12/01 12:45:42;;;;;;;19.95;2.58;;;8.20;99.90;;;;;;4991405;28;20064;-80
2021/12/01 12:48:26;;;;;;;22.10;2.85;;;8.10;99.90;;;;;;5028216;28;265051;-83
2021/12/01 12:51:14;;;;;;;22.33;3.45;;;8.20;99.90;;;;;;5043625;28;20068;-83
2021/12/01 12:54:02;;;;;;;20.98;2.80;;;8.10;99.90;;;;;;5029480;28;265380;-80
2021/12/01 12:56:31;;;;;;;22.95;3.05;;;8.10;99.90;;;;;;5045109;28;20060;-81
2021/12/01 12:59:25;;;;;;;19.88;2.70;;;8.00;99.90;;;;;;5030796;28;257704;-80
2021/12/01 13:01:51;;;;;;;16.55;2.20;;;8.00;99.90;;;;;;5048319;28;20053;-81